createdAt,value
2022-08-22T00:02:24.614Z,13.09
2022-08-22T00:02:49.936Z,13.67
2022-08-22T00:03:06.941Z,13.09
2022-08-22T00:05:10.662Z,13.12
2022-08-22T00:07:51.111Z,13.09
2022-08-22T00:10:25.919Z,13.04
2022-08-22T00:13:07.483Z,13.14
2022-08-22T00:15:43.416Z,13.22
2022-08-22T00:18:29.430Z,13.26
2022-08-22T00:21:12.873Z,13.26
2022-08-22T00:23:52.688Z,13.28
2022-08-22T00:26:31.951Z,13.28
2022-08-22T00:29:05.374Z,13.20
2022-08-22T00:31:32.349Z,13.21
2022-08-22T00:34:18.066Z,13.22
2022-08-22T00:37:07.832Z,13.15
2022-08-22T00:39:52.184Z,13.26
2022-08-22T00:42:35.068Z,13.18
2022-08-22T00:45:36.404Z,13.10
2022-08-22T00:48:23.262Z,13.18
2022-08-22T00:50:51.516Z,13.08
2022-08-22T00:53:55.262Z,12.97
2022-08-22T00:56:45.179Z,12.93
2022-08-22T00:59:28.743Z,12.99
2022-08-22T01:02:22.158Z,13.11
2022-08-22T01:05:11.111Z,13.01
2022-08-22T01:08:18.050Z,12.95
2022-08-22T01:11:05.995Z,13.01
2022-08-22T01:14:00.730Z,12.98
2022-08-22T01:16:46.039Z,12.96
2022-08-22T01:19:43.281Z,12.86
2022-08-22T01:22:19.880Z,12.88
2022-08-22T01:25:22.464Z,12.83
2022-08-22T01:28:14.578Z,12.89
2022-08-22T01:30:46.047Z,12.90
2022-08-22T01:33:36.128Z,12.84
2022-08-22T01:36:23.603Z,12.95
2022-08-22T01:39:08.781Z,12.97
2022-08-22T01:41:52.557Z,12.89
2022-08-22T01:44:47.073Z,13.00
2022-08-22T01:47:37.787Z,12.95
2022-08-22T01:50:21.315Z,12.99
2022-08-22T01:53:14.506Z,12.98
2022-08-22T01:56:07.961Z,12.81
2022-08-22T01:58:37.699Z,12.74
2022-08-22T02:01:10.836Z,12.82
2022-08-22T02:04:16.431Z,12.81
2022-08-22T02:06:59.141Z,12.77
2022-08-22T02:09:36.256Z,12.72
2022-08-22T02:12:22.503Z,12.67
2022-08-22T02:15:26.729Z,12.62
2022-08-22T02:17:56.400Z,12.68
2022-08-22T02:20:41.404Z,12.61
2022-08-22T02:23:30.247Z,12.51
2022-08-22T02:26:01.356Z,12.51
2022-08-22T02:28:42.423Z,12.50
2022-08-22T02:31:49.350Z,12.27
2022-08-22T02:34:36.833Z,12.34
2022-08-22T02:37:54.919Z,12.32
2022-08-22T02:40:38.018Z,12.26
2022-08-22T02:43:28.326Z,12.15
2022-08-22T02:46:20.087Z,12.20
2022-08-22T02:49:27.348Z,12.23
2022-08-22T02:52:24.228Z,12.10
2022-08-22T02:55:04.675Z,12.24
2022-08-22T02:57:47.435Z,12.29
2022-08-22T03:00:30.659Z,12.33
2022-08-22T03:03:16.757Z,12.27
2022-08-22T03:06:10.004Z,12.21
2022-08-22T03:08:47.527Z,12.01
2022-08-22T03:11:30.356Z,12.25
2022-08-22T03:14:04.697Z,12.28
2022-08-22T03:17:02.906Z,12.26
2022-08-22T03:19:51.439Z,12.14
2022-08-22T03:22:30.261Z,12.09
2022-08-22T03:25:14.643Z,11.95
2022-08-22T03:27:52.070Z,12.01
2022-08-22T03:30:28.870Z,11.92
2022-08-22T03:33:13.054Z,11.86
2022-08-22T03:35:55.648Z,11.98
2022-08-22T03:38:41.811Z,11.86
2022-08-22T03:41:27.140Z,12.07
2022-08-22T03:44:15.550Z,12.07
2022-08-22T03:47:07.005Z,12.11
2022-08-22T03:50:07.458Z,11.98
2022-08-22T03:53:06.515Z,11.91
2022-08-22T03:56:16.981Z,11.81
2022-08-22T03:59:01.141Z,11.77
2022-08-22T04:01:54.236Z,11.76
2022-08-22T04:04:40.598Z,11.73
2022-08-22T04:07:33.287Z,11.73
2022-08-22T04:10:12.769Z,11.71
2022-08-22T04:13:11.207Z,11.77
2022-08-22T04:15:49.694Z,11.81
2022-08-22T04:18:36.516Z,11.73
2022-08-22T04:21:14.780Z,11.59
2022-08-22T04:24:02.763Z,11.71
2022-08-22T04:26:47.223Z,11.62
2022-08-22T04:29:33.960Z,11.67
2022-08-22T04:32:22.942Z,11.77
2022-08-22T04:35:15.567Z,11.74
2022-08-22T04:37:57.046Z,11.73
2022-08-22T04:40:36.952Z,11.82
2022-08-22T04:43:11.601Z,11.75
2022-08-22T04:45:49.579Z,11.74
2022-08-22T04:48:18.655Z,11.77
2022-08-22T04:50:45.207Z,11.80
2022-08-22T04:53:37.564Z,11.70
2022-08-22T04:56:22.526Z,11.72
2022-08-22T04:59:04.647Z,11.82
2022-08-22T05:01:58.514Z,11.88
2022-08-22T05:04:42.537Z,11.91
2022-08-22T05:07:19.706Z,11.91
2022-08-22T05:09:52.944Z,11.99
2022-08-22T05:12:29.123Z,11.89
2022-08-22T05:15:27.348Z,12.09
2022-08-22T05:17:56.388Z,12.09
2022-08-22T05:20:25.616Z,12.12
2022-08-22T05:22:56.698Z,12.07
2022-08-22T05:25:30.699Z,12.09
2022-08-22T05:28:19.172Z,12.13
2022-08-22T05:30:47.434Z,12.06
2022-08-22T05:33:30.691Z,12.11
2022-08-22T05:36:03.555Z,12.01
2022-08-22T05:38:34.866Z,12.23
2022-08-22T05:41:10.310Z,12.33
2022-08-22T05:43:41.787Z,12.40
2022-08-22T05:46:20.500Z,12.30
2022-08-22T05:48:59.869Z,12.50
2022-08-22T05:51:36.861Z,12.48
2022-08-22T05:54:12.407Z,12.55
2022-08-22T05:56:52.951Z,12.65
2022-08-22T05:59:25.541Z,12.82
2022-08-22T06:02:02.413Z,12.95
2022-08-22T06:04:39.443Z,13.06
2022-08-22T06:07:17.684Z,13.16
2022-08-22T06:09:47.853Z,13.21
2022-08-22T06:12:21.664Z,13.31
2022-08-22T06:15:21.088Z,13.45
2022-08-22T06:18:01.916Z,13.48
2022-08-22T06:20:37.138Z,13.55
2022-08-22T06:23:06.070Z,13.62
2022-08-22T06:25:37.700Z,13.78
2022-08-22T06:28:14.092Z,13.95
2022-08-22T06:30:45.626Z,13.96
2022-08-22T06:33:18.979Z,14.23
2022-08-22T06:36:08.233Z,14.36
2022-08-22T06:39:27.282Z,14.72
2022-08-22T06:42:05.514Z,14.99
2022-08-22T06:44:35.879Z,15.45
2022-08-22T06:47:09.123Z,15.83
2022-08-22T06:49:39.504Z,16.08
2022-08-22T06:52:11.677Z,16.41
2022-08-22T06:54:43.822Z,16.56
2022-08-22T06:57:44.180Z,17.01
2022-08-22T07:00:13.865Z,17.17
2022-08-22T07:02:46.452Z,17.21
2022-08-22T07:05:24.748Z,17.50
2022-08-22T07:07:53.067Z,17.53
2022-08-22T07:10:21.865Z,17.50
2022-08-22T07:12:52.331Z,17.59
2022-08-22T07:15:24.443Z,17.70
2022-08-22T07:17:54.826Z,17.74
2022-08-22T07:20:27.984Z,17.80
2022-08-22T07:23:00.099Z,17.82
2022-08-22T07:25:28.203Z,17.84
2022-08-22T07:28:37.097Z,17.95
2022-08-22T07:31:25.981Z,18.10
2022-08-22T07:34:04.611Z,18.10
2022-08-22T07:37:02.330Z,18.29
2022-08-22T07:39:39.748Z,18.29
2022-08-22T07:42:13.878Z,18.33
2022-08-22T07:44:46.636Z,18.37
2022-08-22T07:47:18.012Z,18.33
2022-08-22T07:49:58.811Z,18.46
2022-08-22T07:52:26.973Z,18.42
2022-08-22T07:54:57.885Z,18.53
2022-08-22T07:57:37.724Z,18.63
2022-08-22T08:00:12.613Z,18.70
2022-08-22T08:02:50.119Z,18.71
2022-08-22T08:05:20.042Z,18.61
2022-08-22T08:07:47.975Z,18.98
2022-08-22T08:10:20.033Z,19.07
2022-08-22T08:13:01.756Z,19.07
2022-08-22T08:15:31.991Z,19.07
2022-08-22T08:18:19.119Z,19.18
2022-08-22T08:20:56.659Z,18.81
2022-08-22T08:23:25.149Z,19.31
2022-08-22T08:26:17.203Z,19.55
2022-08-22T08:28:49.148Z,19.51
2022-08-22T08:31:31.483Z,19.44
2022-08-22T08:34:08.836Z,19.38
2022-08-22T08:36:49.324Z,19.57
2022-08-22T08:39:18.519Z,19.56
2022-08-22T08:42:10.418Z,19.75
2022-08-22T08:45:07.356Z,19.81
2022-08-22T08:48:11.145Z,19.92
2022-08-22T08:50:51.882Z,19.87
2022-08-22T08:53:43.271Z,19.91
2022-08-22T08:56:28.542Z,19.98
2022-08-22T08:59:10.049Z,19.72
2022-08-22T09:01:41.660Z,19.96
2022-08-22T09:04:21.061Z,20.05
2022-08-22T09:07:09.440Z,20.08
2022-08-22T09:09:42.788Z,20.18
2022-08-22T09:12:25.876Z,20.23
2022-08-22T09:15:02.881Z,20.30
2022-08-22T09:17:54.445Z,20.40
2022-08-22T09:20:53.884Z,20.38
2022-08-22T09:23:43.333Z,20.52
2022-08-22T09:26:17.518Z,20.52
2022-08-22T09:29:34.294Z,20.60
2022-08-22T09:32:13.089Z,20.89
2022-08-22T09:34:51.780Z,22.11
2022-08-22T09:37:35.261Z,23.49
2022-08-22T09:40:17.466Z,24.70
2022-08-22T09:43:21.367Z,25.26
2022-08-22T09:45:57.493Z,25.38
2022-08-22T09:48:43.588Z,25.56
2022-08-22T09:51:33.165Z,24.69
2022-08-22T09:54:06.382Z,25.68
2022-08-22T09:56:47.811Z,25.15
2022-08-22T09:59:25.340Z,25.39
2022-08-22T10:02:29.259Z,25.35
2022-08-22T10:05:39.513Z,25.42
2022-08-22T10:08:30.523Z,25.33
2022-08-22T10:11:07.489Z,25.55
2022-08-22T10:14:09.183Z,25.15
2022-08-22T10:16:54.664Z,24.96
2022-08-22T10:19:33.758Z,25.18
2022-08-22T10:22:15.247Z,25.40
2022-08-22T10:25:07.604Z,25.30
2022-08-22T10:27:47.108Z,25.07
2022-08-22T10:30:59.374Z,24.95
2022-08-22T10:34:09.168Z,24.54
2022-08-22T10:37:16.171Z,25.33
2022-08-22T10:39:48.496Z,25.29
2022-08-22T10:42:41.731Z,25.78
2022-08-22T10:45:35.262Z,25.81
2022-08-22T10:48:16.359Z,26.39
2022-08-22T10:50:48.196Z,26.77
2022-08-22T10:53:34.981Z,26.62
2022-08-22T10:56:16.175Z,26.33
2022-08-22T10:58:56.140Z,26.57
2022-08-22T11:01:38.446Z,26.89
2022-08-22T11:04:45.921Z,27.37
2022-08-22T11:07:39.484Z,27.38
2022-08-22T11:10:37.522Z,27.81
2022-08-22T11:13:29.070Z,28.11
2022-08-22T11:16:05.979Z,28.72
2022-08-22T11:19:02.852Z,28.77
2022-08-22T11:22:03.656Z,29.04
2022-08-22T11:25:04.165Z,29.61
2022-08-22T11:27:42.206Z,28.78
2022-08-22T11:30:18.228Z,28.67
2022-08-22T11:33:11.596Z,29.12
2022-08-22T11:36:04.642Z,29.23
2022-08-22T11:38:41.332Z,28.98
2022-08-22T11:41:14.362Z,29.01
2022-08-22T11:43:49.130Z,29.41
2022-08-22T11:46:31.823Z,29.65
2022-08-22T11:49:05.616Z,29.56
2022-08-22T11:51:45.966Z,29.58
2022-08-22T11:54:20.989Z,29.02
2022-08-22T11:57:14.959Z,28.48
2022-08-22T11:59:43.361Z,29.03
2022-08-22T12:02:31.597Z,29.43
2022-08-22T12:05:06.742Z,28.89
2022-08-22T12:07:39.386Z,28.48
2022-08-22T12:10:19.734Z,28.74
2022-08-22T12:12:56.255Z,28.94
2022-08-22T12:15:36.376Z,29.71
2022-08-22T12:18:06.273Z,29.33
2022-08-22T12:20:52.922Z,30.02
2022-08-22T12:23:43.453Z,30.08
2022-08-22T12:26:47.323Z,29.65
2022-08-22T12:29:45.173Z,30.12
2022-08-22T12:32:44.065Z,29.59
2022-08-22T12:35:30.115Z,29.73
2022-08-22T12:38:29.387Z,28.82
2022-08-22T12:41:27.654Z,27.81
2022-08-22T12:44:14.779Z,27.50
2022-08-22T12:46:57.608Z,27.38
2022-08-22T12:49:52.346Z,27.22
2022-08-22T12:52:27.781Z,26.65
2022-08-22T12:55:24.871Z,26.16
2022-08-22T12:58:18.769Z,26.28
2022-08-22T13:00:48.176Z,25.91
2022-08-22T13:03:27.200Z,25.60
2022-08-22T13:06:03.535Z,24.73
2022-08-22T13:08:38.589Z,25.06
2022-08-22T13:11:17.493Z,24.95
2022-08-22T13:13:58.859Z,25.00
2022-08-22T13:16:36.390Z,24.94
2022-08-22T13:19:13.466Z,24.49
2022-08-22T13:21:45.770Z,24.60
2022-08-22T13:24:22.532Z,24.42
2022-08-22T13:26:55.135Z,24.40
2022-08-22T13:29:27.320Z,24.52
2022-08-22T13:32:01.961Z,24.17
2022-08-22T13:34:49.142Z,24.03
2022-08-22T13:37:20.260Z,23.99
2022-08-22T13:39:55.159Z,23.92
2022-08-22T13:42:30.141Z,23.93
2022-08-22T13:45:02.447Z,24.17
2022-08-22T13:47:32.469Z,24.28
2022-08-22T13:50:13.955Z,24.10
2022-08-22T13:52:52.444Z,23.87
2022-08-22T13:55:29.426Z,23.86
2022-08-22T13:58:04.627Z,23.42
2022-08-22T14:01:05.847Z,23.62
2022-08-22T14:03:49.240Z,23.79
2022-08-22T14:06:50.106Z,23.90
2022-08-22T14:09:45.285Z,23.94
2022-08-22T14:12:19.463Z,23.95
2022-08-22T14:15:00.577Z,24.23
2022-08-22T14:17:42.513Z,24.16
2022-08-22T14:20:32.218Z,24.14
2022-08-22T14:23:06.203Z,23.99
2022-08-22T14:25:36.451Z,23.98
2022-08-22T14:28:11.537Z,23.74
2022-08-22T14:31:00.909Z,23.72
2022-08-22T14:33:34.092Z,23.76
2022-08-22T14:36:17.220Z,23.75
2022-08-22T14:38:53.431Z,23.80
2022-08-22T14:41:52.306Z,23.93
2022-08-22T14:44:45.994Z,23.99
2022-08-22T14:47:55.610Z,23.94
2022-08-22T14:50:43.643Z,24.27
2022-08-22T14:53:22.124Z,24.31
2022-08-22T14:55:58.608Z,24.22
2022-08-22T14:58:27.749Z,24.19
2022-08-22T15:00:56.165Z,24.01
2022-08-22T15:03:27.826Z,24.14
2022-08-22T15:06:02.060Z,23.91
2022-08-22T15:08:35.143Z,23.71
2022-08-22T15:11:25.157Z,24.07
2022-08-22T15:14:04.178Z,24.21
2022-08-22T15:16:34.863Z,23.95
2022-08-22T15:19:02.253Z,24.09
2022-08-22T15:21:32.808Z,24.19
2022-08-22T15:24:06.530Z,23.87
2022-08-22T15:26:38.383Z,23.56
2022-08-22T15:29:31.639Z,23.65
2022-08-22T15:32:00.996Z,23.74
2022-08-22T15:34:32.632Z,23.74
2022-08-22T15:37:17.695Z,23.73
2022-08-22T15:40:12.749Z,23.63
2022-08-22T15:42:44.030Z,23.72
2022-08-22T15:45:30.581Z,23.58
2022-08-22T15:48:04.503Z,23.43
2022-08-22T15:50:37.426Z,23.42
2022-08-22T15:53:27.699Z,23.56
2022-08-22T15:56:06.792Z,23.34
2022-08-22T15:58:40.281Z,23.04
2022-08-22T16:01:22.173Z,22.98
2022-08-22T16:04:03.476Z,22.72
2022-08-22T16:06:46.655Z,22.63
2022-08-22T16:09:40.644Z,22.54
2022-08-22T16:12:37.316Z,22.40
2022-08-22T16:15:44.619Z,22.33
2022-08-22T16:18:39.366Z,22.38
2022-08-22T16:21:31.422Z,22.39
2022-08-22T16:24:01.300Z,22.23
2022-08-22T16:26:31.623Z,22.16
2022-08-22T16:29:07.997Z,22.16
2022-08-22T16:31:57.207Z,21.85
2022-08-22T16:34:24.879Z,21.91
2022-08-22T16:37:08.903Z,21.87
2022-08-22T16:39:50.130Z,21.55
2022-08-22T16:42:24.175Z,21.59
2022-08-22T16:45:08.886Z,21.56
2022-08-22T16:47:59.269Z,21.42
2022-08-22T16:50:34.742Z,21.28
2022-08-22T16:53:30.875Z,21.21
2022-08-22T16:56:18.370Z,21.17
2022-08-22T16:59:03.333Z,21.06
2022-08-22T17:01:54.922Z,20.96
2022-08-22T17:04:37.799Z,20.96
2022-08-22T17:07:17.801Z,21.03
2022-08-22T17:09:55.782Z,20.96
2022-08-22T17:12:30.455Z,20.88
2022-08-22T17:15:09.726Z,20.86
2022-08-22T17:17:47.394Z,20.80
2022-08-22T17:20:20.424Z,20.77
2022-08-22T17:22:51.486Z,20.64
2022-08-22T17:25:23.531Z,20.57
2022-08-22T17:28:00.255Z,20.32
2022-08-22T17:30:44.422Z,20.41
2022-08-22T17:33:40.508Z,20.40
2022-08-22T17:36:26.544Z,20.27
2022-08-22T17:39:29.117Z,20.12
2022-08-22T17:42:23.781Z,19.99
2022-08-22T17:44:59.575Z,20.18
2022-08-22T17:47:37.486Z,19.99
2022-08-22T17:50:11.090Z,19.97
2022-08-22T17:52:46.452Z,19.84
2022-08-22T17:55:28.983Z,19.30
2022-08-22T17:58:37.596Z,19.61
2022-08-22T18:01:10.666Z,19.33
2022-08-22T18:03:42.388Z,19.32
2022-08-22T18:06:25.281Z,19.15
2022-08-22T18:09:15.212Z,19.02
2022-08-22T18:12:07.105Z,18.96
2022-08-22T18:14:45.116Z,18.71
2022-08-22T18:17:38.462Z,18.45
2022-08-22T18:20:23.983Z,18.25
2022-08-22T18:22:56.782Z,18.08
2022-08-22T18:25:34.607Z,17.94
2022-08-22T18:28:40.765Z,17.74
2022-08-22T18:31:16.406Z,17.46
2022-08-22T18:33:57.222Z,17.36
2022-08-22T18:36:38.309Z,16.92
2022-08-22T18:39:22.707Z,16.78
2022-08-22T18:42:07.995Z,16.89
2022-08-22T18:44:39.449Z,16.57
2022-08-22T18:47:17.129Z,16.57
2022-08-22T18:49:48.482Z,16.32
2022-08-22T18:52:19.538Z,16.25
2022-08-22T18:55:17.229Z,16.02
2022-08-22T18:58:10.815Z,16.03
2022-08-22T19:01:11.135Z,15.90
2022-08-22T19:03:54.972Z,15.68
2022-08-22T19:07:04.635Z,15.54
2022-08-22T19:09:47.064Z,15.62
2022-08-22T19:12:32.156Z,15.53
2022-08-22T19:15:21.595Z,15.50
2022-08-22T19:18:04.795Z,15.36
2022-08-22T19:20:57.759Z,15.28
2022-08-22T19:23:40.369Z,15.11
2022-08-22T19:26:28.542Z,14.97
2022-08-22T19:28:59.619Z,14.85
2022-08-22T19:31:35.264Z,14.74
2022-08-22T19:34:29.980Z,14.63
2022-08-22T19:37:32.457Z,14.57
2022-08-22T19:40:08.963Z,14.48
2022-08-22T19:42:41.495Z,14.38
2022-08-22T19:45:17.783Z,14.39
2022-08-22T19:47:54.379Z,14.43
2022-08-22T19:50:21.311Z,14.52
2022-08-22T19:52:57.784Z,14.46
2022-08-22T19:55:37.851Z,14.26
2022-08-22T19:58:31.942Z,14.17
2022-08-22T20:01:27.418Z,14.02
2022-08-22T20:04:01.869Z,13.96
2022-08-22T20:06:44.444Z,13.93
2022-08-22T20:09:38.845Z,13.86
2022-08-22T20:12:29.666Z,13.60
2022-08-22T20:15:16.438Z,13.77
2022-08-22T20:17:44.479Z,13.69
2022-08-22T20:20:35.610Z,13.84
2022-08-22T20:23:15.852Z,14.04
2022-08-22T20:25:50.200Z,14.05
2022-08-22T20:28:33.279Z,13.97
2022-08-22T20:31:10.594Z,13.88
2022-08-22T20:33:46.043Z,13.41
2022-08-22T20:36:28.480Z,13.81
2022-08-22T20:39:07.653Z,13.69
2022-08-22T20:41:40.508Z,13.49
2022-08-22T20:44:16.076Z,13.36
2022-08-22T20:46:55.198Z,13.38
2022-08-22T20:49:30.458Z,13.24
2022-08-22T20:52:04.831Z,13.22
2022-08-22T20:54:37.942Z,13.16
2022-08-22T20:57:17.147Z,13.11
2022-08-22T20:59:54.388Z,13.06
2022-08-22T21:02:26.564Z,12.99
2022-08-22T21:04:57.661Z,12.85
2022-08-22T21:07:28.949Z,12.75
2022-08-22T21:10:34.951Z,12.81
2022-08-22T21:13:12.340Z,12.73
2022-08-22T21:15:58.080Z,12.83
2022-08-22T21:18:34.107Z,12.92
2022-08-22T21:21:17.513Z,12.99
2022-08-22T21:23:49.926Z,12.97
2022-08-22T21:26:28.685Z,12.92
2022-08-22T21:28:57.553Z,12.81
2022-08-22T21:31:27.245Z,12.89
2022-08-22T21:33:55.148Z,12.57
2022-08-22T21:36:29.334Z,12.52
2022-08-22T21:38:59.576Z,12.42
2022-08-22T21:41:31.616Z,12.14
2022-08-22T21:44:19.490Z,12.49
2022-08-22T21:46:46.266Z,12.35
2022-08-22T21:49:29.168Z,12.44
2022-08-22T21:51:56.186Z,12.47
2022-08-22T21:54:25.390Z,12.45
2022-08-22T21:56:56.864Z,12.47
2022-08-22T21:59:40.232Z,12.36
2022-08-22T22:02:27.550Z,12.32
2022-08-22T22:04:55.995Z,12.20
2022-08-22T22:07:25.678Z,12.18
2022-08-22T22:09:55.326Z,12.15
2022-08-22T22:12:23.982Z,12.08
2022-08-22T22:14:51.850Z,11.96
2022-08-22T22:17:21.006Z,12.00
2022-08-22T22:19:48.463Z,11.90
2022-08-22T22:22:16.582Z,11.81
2022-08-22T22:24:43.925Z,11.66
2022-08-22T22:27:16.388Z,11.82
2022-08-22T22:29:44.621Z,11.85
2022-08-22T22:32:11.612Z,11.75
2022-08-22T22:34:40.043Z,11.60
2022-08-22T22:37:08.367Z,11.73
2022-08-22T22:39:36.345Z,11.77
2022-08-22T22:42:06.806Z,11.52
2022-08-22T22:44:39.041Z,11.64
2022-08-22T22:47:09.760Z,11.54
2022-08-22T22:49:37.791Z,11.28
2022-08-22T22:52:06.205Z,11.27
2022-08-22T22:54:38.310Z,11.32
2022-08-22T22:57:12.483Z,11.42
2022-08-22T22:59:39.552Z,11.40
2022-08-22T23:02:14.756Z,11.29
2022-08-22T23:04:45.181Z,11.37
2022-08-22T23:07:15.007Z,11.17
2022-08-22T23:09:44.559Z,11.33
2022-08-22T23:12:12.986Z,11.27
2022-08-22T23:14:41.207Z,11.17
2022-08-22T23:17:10.995Z,11.21
2022-08-22T23:19:38.938Z,11.30
2022-08-22T23:22:07.307Z,11.34
2022-08-22T23:24:35.143Z,11.11
2022-08-22T23:27:02.154Z,11.21
2022-08-22T23:29:29.639Z,11.23
2022-08-22T23:32:02.227Z,11.25
2022-08-22T23:34:31.694Z,11.13
2022-08-22T23:37:00.543Z,11.19
2022-08-22T23:39:29.488Z,11.34
2022-08-22T23:41:59.255Z,11.17
2022-08-22T23:44:29.824Z,11.36
2022-08-22T23:46:57.312Z,11.37
2022-08-22T23:49:24.024Z,11.40
2022-08-22T23:51:51.635Z,11.38
2022-08-22T23:54:18.798Z,11.24
2022-08-22T23:57:11.470Z,11.35
2022-08-22T23:59:46.270Z,11.06
